createdAt,value
2018-03-04T00:01:48.814Z,65.22
2018-03-04T00:04:17.982Z,65.82
2018-03-04T00:06:47.138Z,68.47
2018-03-04T00:09:15.507Z,64.82
2018-03-04T00:11:44.146Z,63.70
2018-03-04T00:14:13.371Z,63.22
2018-03-04T00:16:41.883Z,64.00
2018-03-04T00:19:10.458Z,60.17
2018-03-04T00:21:38.937Z,65.47
2018-03-04T00:24:07.366Z,69.28
2018-03-04T00:26:36.680Z,64.05
2018-03-04T00:29:05.852Z,65.57
2018-03-04T00:31:35.941Z,62.67
2018-03-04T00:34:05.750Z,64.30
2018-03-04T00:36:34.478Z,67.70
2018-03-04T00:39:03.678Z,62.55
2018-03-04T00:41:32.838Z,65.50
2018-03-04T00:44:01.279Z,65.60
2018-03-04T00:46:29.674Z,65.90
2018-03-04T00:48:58.214Z,65.65
2018-03-04T00:51:27.558Z,66.55
2018-03-04T00:53:55.977Z,64.20
2018-03-04T00:56:25.161Z,70.43
2018-03-04T00:58:53.609Z,67.30
2018-03-04T01:01:22.012Z,66.72
2018-03-04T01:03:50.494Z,67.93
2018-03-04T01:06:18.979Z,70.65
2018-03-04T01:08:47.459Z,67.65
2018-03-04T01:11:15.836Z,71.15
2018-03-04T01:13:44.207Z,73.22
2018-03-04T01:16:12.648Z,70.97
2018-03-04T01:18:41.081Z,70.50
2018-03-04T01:21:09.526Z,67.82
2018-03-04T01:23:37.949Z,68.30
2018-03-04T01:26:06.494Z,70.78
2018-03-04T01:28:34.918Z,71.50
2018-03-04T01:31:03.341Z,70.97
2018-03-04T01:33:31.750Z,71.72
2018-03-04T01:36:00.173Z,74.10
2018-03-04T01:38:29.396Z,73.72
2018-03-04T01:40:57.810Z,70.05
2018-03-04T01:43:26.525Z,75.12
2018-03-04T01:45:55.681Z,73.40
2018-03-04T01:48:24.169Z,69.00
2018-03-04T01:50:52.738Z,70.43
2018-03-04T01:53:21.123Z,69.65
2018-03-04T01:55:49.577Z,71.32
2018-03-04T01:58:17.942Z,77.05
2018-03-04T02:00:46.492Z,73.20
2018-03-04T02:03:14.917Z,73.22
2018-03-04T02:05:43.524Z,68.57
2018-03-04T02:08:11.903Z,71.00
2018-03-04T02:10:40.280Z,70.62
2018-03-04T02:13:08.771Z,74.60
2018-03-04T02:15:37.140Z,69.45
2018-03-04T02:18:05.582Z,68.50
2018-03-04T02:20:34.769Z,67.60
2018-03-04T02:23:04.721Z,69.62
2018-03-04T02:25:33.089Z,72.97
2018-03-04T02:28:01.509Z,73.87
2018-03-04T02:30:29.901Z,71.28
2018-03-04T02:32:58.277Z,67.55
2018-03-04T02:35:27.371Z,70.60
2018-03-04T02:37:56.345Z,73.40
2018-03-04T02:40:25.996Z,70.62
2018-03-04T02:42:55.896Z,71.45
2018-03-04T02:45:24.846Z,75.90
2018-03-04T02:47:53.811Z,72.78
2018-03-04T02:50:22.654Z,73.00
2018-03-04T02:52:53.149Z,71.28
2018-03-04T02:55:23.101Z,69.55
2018-03-04T02:57:52.283Z,70.53
2018-03-04T03:00:20.654Z,73.53
2018-03-04T03:02:49.025Z,75.47
2018-03-04T03:05:17.470Z,72.75
2018-03-04T03:07:45.995Z,69.43
2018-03-04T03:10:14.395Z,69.80
2018-03-04T03:12:42.812Z,69.65
2018-03-04T03:15:11.590Z,67.72
2018-03-04T03:17:40.731Z,67.80
2018-03-04T03:20:09.098Z,70.57
2018-03-04T03:22:37.546Z,74.22
2018-03-04T03:25:06.734Z,67.47
2018-03-04T03:27:35.939Z,67.72
2018-03-04T03:30:05.078Z,73.85
2018-03-04T03:32:33.963Z,69.87
2018-03-04T03:35:02.397Z,67.57
2018-03-04T03:37:31.590Z,71.28
2018-03-04T03:40:00.798Z,67.68
2018-03-04T03:42:30.018Z,70.82
2018-03-04T03:44:58.465Z,70.28
2018-03-04T03:47:27.653Z,69.45
2018-03-04T03:49:56.411Z,68.90
2018-03-04T03:52:24.835Z,70.05
2018-03-04T03:54:54.083Z,69.12
2018-03-04T03:57:22.671Z,66.28
2018-03-04T03:59:51.257Z,64.55
2018-03-04T04:02:20.505Z,70.00
2018-03-04T04:04:50.404Z,66.68
2018-03-04T04:07:19.612Z,69.93
2018-03-04T04:09:48.816Z,69.97
2018-03-04T04:12:18.001Z,66.47
2018-03-04T04:14:47.165Z,62.67
2018-03-04T04:17:15.572Z,68.93
2018-03-04T04:19:44.836Z,65.80
2018-03-04T04:22:13.254Z,64.07
2018-03-04T04:24:42.935Z,67.43
2018-03-04T04:27:11.356Z,66.37
2018-03-04T04:29:39.849Z,64.25
2018-03-04T04:32:08.250Z,66.60
2018-03-04T04:34:36.668Z,63.95
2018-03-04T04:37:05.113Z,68.22
2018-03-04T04:39:33.572Z,67.90
2018-03-04T04:42:02.349Z,70.28
2018-03-04T04:44:31.077Z,69.32
2018-03-04T04:46:59.509Z,67.45
2018-03-04T04:49:28.717Z,67.12
2018-03-04T04:51:57.234Z,68.40
2018-03-04T04:54:25.956Z,67.40
2018-03-04T04:56:55.145Z,68.28
2018-03-04T04:59:23.535Z,65.95
2018-03-04T05:01:51.994Z,63.40
2018-03-04T05:04:20.563Z,62.85
2018-03-04T05:06:49.556Z,67.05
2018-03-04T05:09:17.946Z,66.53
2018-03-04T05:11:46.516Z,65.18
2018-03-04T05:14:14.917Z,67.10
2018-03-04T05:16:43.484Z,69.25
2018-03-04T05:19:12.050Z,67.43
2018-03-04T05:21:40.541Z,65.25
2018-03-04T05:24:08.930Z,64.03
2018-03-04T05:26:37.445Z,62.78
2018-03-04T05:29:06.630Z,66.40
2018-03-04T05:31:35.373Z,64.15
2018-03-04T05:34:03.794Z,69.03
2018-03-04T05:36:33.920Z,69.65
2018-03-04T05:39:03.198Z,71.12
2018-03-04T05:41:31.577Z,66.43
2018-03-04T05:44:00.246Z,66.05
2018-03-04T05:46:28.678Z,71.40
2018-03-04T05:48:57.051Z,72.00
2018-03-04T05:51:26.249Z,70.85
2018-03-04T05:53:55.637Z,71.55
2018-03-04T05:56:24.229Z,72.32
2018-03-04T05:58:53.408Z,66.32
2018-03-04T06:01:21.998Z,70.65
2018-03-04T06:03:50.393Z,71.82
2018-03-04T06:06:19.558Z,75.37
2018-03-04T06:08:48.005Z,72.90
2018-03-04T06:11:17.293Z,73.20
2018-03-04T06:13:46.039Z,71.82
2018-03-04T06:16:14.490Z,72.50
2018-03-04T06:18:42.858Z,71.47
2018-03-04T06:21:11.263Z,70.75
2018-03-04T06:23:39.676Z,73.90
2018-03-04T06:26:08.868Z,72.03
2018-03-04T06:28:38.630Z,70.93
2018-03-04T06:31:07.055Z,69.97
2018-03-04T06:33:36.221Z,75.25
2018-03-04T06:36:04.676Z,75.47
2018-03-04T06:38:33.262Z,74.93
2018-03-04T06:41:02.406Z,76.32
2018-03-04T06:43:31.597Z,72.78
2018-03-04T06:46:00.796Z,78.82
2018-03-04T06:48:29.166Z,72.57
2018-03-04T06:50:57.966Z,74.85
2018-03-04T06:53:27.149Z,70.97
2018-03-04T06:55:55.518Z,72.57
2018-03-04T06:58:23.906Z,70.60
2018-03-04T07:00:53.035Z,72.47
2018-03-04T07:03:21.870Z,66.60
2018-03-04T07:05:50.240Z,72.37
2018-03-04T07:08:18.656Z,73.78
2018-03-04T07:10:47.062Z,70.87
2018-03-04T07:13:16.199Z,71.28
2018-03-04T07:15:45.093Z,75.97
2018-03-04T07:18:13.468Z,72.85
2018-03-04T07:20:41.839Z,73.80
2018-03-04T07:23:10.277Z,73.62
2018-03-04T07:25:39.409Z,70.95
2018-03-04T07:28:08.015Z,75.65
2018-03-04T07:30:36.389Z,70.70
2018-03-04T07:33:04.770Z,72.05
2018-03-04T07:35:33.158Z,69.80
2018-03-04T07:38:01.539Z,71.30
2018-03-04T07:40:29.966Z,74.68
2018-03-04T07:42:58.343Z,70.90
2018-03-04T07:45:26.719Z,70.68
2018-03-04T07:47:55.113Z,70.40
2018-03-04T07:50:23.482Z,67.37
2018-03-04T07:52:52.286Z,69.20
2018-03-04T07:55:20.683Z,67.57
2018-03-04T07:57:49.100Z,73.40
2018-03-04T08:00:18.260Z,72.70
2018-03-04T08:02:46.643Z,73.30
2018-03-04T08:05:15.308Z,68.50
2018-03-04T08:07:43.674Z,70.32
2018-03-04T08:10:12.054Z,70.45
2018-03-04T08:12:40.454Z,72.47
2018-03-04T08:15:08.829Z,70.75
2018-03-04T08:17:37.398Z,73.32
2018-03-04T08:20:05.773Z,68.97
2018-03-04T08:22:34.150Z,69.62
2018-03-04T08:25:20.337Z,70.45
2018-03-04T08:28:06.613Z,73.47
2018-03-04T08:30:35.812Z,69.78
2018-03-04T08:33:04.960Z,69.22
2018-03-04T08:35:33.362Z,75.15
2018-03-04T08:38:01.743Z,70.22
2018-03-04T08:40:30.633Z,69.70
2018-03-04T08:42:59.031Z,72.60
2018-03-04T08:45:28.178Z,72.77
2018-03-04T08:47:56.590Z,74.50
2018-03-04T08:50:26.482Z,70.90
2018-03-04T08:52:54.902Z,71.20
2018-03-04T08:55:24.054Z,71.33
2018-03-04T08:57:58.481Z,73.07
2018-03-04T09:00:26.879Z,75.17
2018-03-04T09:02:56.775Z,67.60
2018-03-04T09:05:25.188Z,71.27
2018-03-04T09:07:54.374Z,74.03
2018-03-04T09:10:23.909Z,69.67
2018-03-04T09:12:52.729Z,75.87
2018-03-04T09:15:22.179Z,68.57
2018-03-04T09:17:50.582Z,68.33
2018-03-04T09:20:19.049Z,71.90
2018-03-04T09:22:47.464Z,70.57
2018-03-04T09:25:15.841Z,68.20
2018-03-04T09:27:44.280Z,68.93
2018-03-04T09:30:13.431Z,70.40
2018-03-04T09:32:42.213Z,70.00
2018-03-04T09:35:11.646Z,70.97
2018-03-04T09:37:40.148Z,70.13
2018-03-04T09:40:09.421Z,71.23
2018-03-04T09:42:39.201Z,73.43
2018-03-04T09:45:07.689Z,71.40
2018-03-04T09:47:37.150Z,69.87
2018-03-04T09:50:07.093Z,72.67
2018-03-04T09:52:36.368Z,68.57
2018-03-04T09:55:05.987Z,68.83
2018-03-04T09:57:34.386Z,71.00
2018-03-04T10:00:02.765Z,70.77
2018-03-04T10:02:31.634Z,66.00
2018-03-04T10:05:00.011Z,70.87
2018-03-04T10:07:28.578Z,72.50
2018-03-04T10:09:57.048Z,69.80
2018-03-04T10:12:26.513Z,70.20
2018-03-04T10:14:55.051Z,67.47
2018-03-04T10:17:23.691Z,67.97
2018-03-04T10:19:52.198Z,70.73
2018-03-04T10:22:21.452Z,69.33
2018-03-04T10:24:50.484Z,69.00
2018-03-04T10:27:19.634Z,64.67
2018-03-04T10:29:48.462Z,68.23
2018-03-04T10:32:16.866Z,67.37
2018-03-04T10:34:46.012Z,68.40
2018-03-04T10:37:14.425Z,67.13
2018-03-04T10:39:43.592Z,70.40
2018-03-04T10:42:12.006Z,66.00
2018-03-04T10:44:41.335Z,68.43
2018-03-04T10:47:09.954Z,68.43
2018-03-04T10:49:38.739Z,66.10
2018-03-04T10:52:08.205Z,64.57
2018-03-04T10:54:37.028Z,65.70
2018-03-04T10:57:05.444Z,64.30
2018-03-04T10:59:33.846Z,66.20
2018-03-04T11:02:05.218Z,63.43
2018-03-04T11:04:33.890Z,61.50
2018-03-04T11:07:02.347Z,61.60
2018-03-04T11:09:32.566Z,63.73
2018-03-04T11:12:02.007Z,62.00
2018-03-04T11:14:30.978Z,62.00
2018-03-04T11:17:00.203Z,60.73
2018-03-04T11:19:28.662Z,61.03
2018-03-04T11:21:57.136Z,58.40
2018-03-04T11:24:25.562Z,59.10
2018-03-04T11:26:54.511Z,59.07
2018-03-04T11:29:22.913Z,61.40
2018-03-04T11:31:51.309Z,57.77
2018-03-04T11:34:19.727Z,56.80
2018-03-04T11:36:48.886Z,55.40
2018-03-04T11:39:17.433Z,55.83
2018-03-04T11:41:45.859Z,55.13
2018-03-04T11:44:14.393Z,55.90
2018-03-04T11:46:42.784Z,56.27
2018-03-04T11:49:11.253Z,54.23
2018-03-04T11:51:39.694Z,51.93
2018-03-04T11:54:08.099Z,51.97
2018-03-04T11:56:37.838Z,51.43
2018-03-04T11:59:06.214Z,49.20
2018-03-04T12:01:35.940Z,47.90
2018-03-04T12:04:04.531Z,44.93
2018-03-04T12:06:32.980Z,43.97
2018-03-04T12:09:01.386Z,45.67
2018-03-04T12:11:29.841Z,41.73
2018-03-04T12:13:59.111Z,40.93
2018-03-04T12:16:27.600Z,38.10
2018-03-04T12:18:57.479Z,36.53
2018-03-04T12:21:25.879Z,31.47
2018-03-04T12:23:55.173Z,29.47
2018-03-04T12:26:24.346Z,29.20
2018-03-04T12:28:52.918Z,31.03
2018-03-04T12:31:21.375Z,33.17
2018-03-04T12:33:50.761Z,28.27
2018-03-04T12:36:20.306Z,33.23
2018-03-04T12:38:48.712Z,26.83
2018-03-04T12:41:17.899Z,28.73
2018-03-04T12:43:47.326Z,29.63
2018-03-04T12:46:16.480Z,27.93
2018-03-04T12:48:44.963Z,30.03
2018-03-04T12:51:13.346Z,28.80
2018-03-04T12:53:41.923Z,25.33
2018-03-04T12:56:11.443Z,26.70
2018-03-04T12:58:40.305Z,24.20
2018-03-04T13:01:09.587Z,24.10
2018-03-04T13:03:38.510Z,21.40
2018-03-04T13:06:07.121Z,21.97
2018-03-04T13:08:37.175Z,39.13
2018-03-04T13:11:05.988Z,21.33
2018-03-04T13:13:34.481Z,21.03
2018-03-04T13:16:03.979Z,20.93
2018-03-04T13:18:33.382Z,22.67
2018-03-04T13:21:01.895Z,26.30
2018-03-04T13:23:30.724Z,26.80
2018-03-04T13:25:59.486Z,45.70
2018-03-04T13:28:29.709Z,30.17
2018-03-04T13:30:59.104Z,29.70
2018-03-04T13:33:27.523Z,30.33
2018-03-04T13:35:56.949Z,30.67
2018-03-04T13:38:25.578Z,32.07
2018-03-04T13:40:54.353Z,32.00
2018-03-04T13:43:23.115Z,31.83
2018-03-04T13:45:52.335Z,30.67
2018-03-04T13:48:22.098Z,32.40
2018-03-04T13:50:50.739Z,32.50
2018-03-04T13:56:20.513Z,33.73
2018-03-04T13:58:48.895Z,32.90
2018-03-04T14:01:17.375Z,33.33
2018-03-04T14:03:45.777Z,31.80
2018-03-04T14:06:14.220Z,31.17
2018-03-04T14:08:42.625Z,31.00
2018-03-04T14:11:11.231Z,33.77
2018-03-04T14:13:39.887Z,32.37
2018-03-04T14:16:08.777Z,31.47
2018-03-04T14:18:37.174Z,31.70
2018-03-04T14:21:05.575Z,31.07
2018-03-04T14:23:34.032Z,32.70
2018-03-04T14:26:02.475Z,36.77
2018-03-04T14:28:32.532Z,35.90
2018-03-04T14:31:01.197Z,35.07
2018-03-04T14:33:29.578Z,38.03
2018-03-04T14:35:57.967Z,35.50
2018-03-04T14:38:26.388Z,35.30
2018-03-04T14:40:55.535Z,37.15
2018-03-04T14:43:24.010Z,35.67
2018-03-04T14:45:52.506Z,35.63
2018-03-04T14:48:21.381Z,34.83
2018-03-04T14:50:49.902Z,33.95
2018-03-04T14:53:18.370Z,36.10
2018-03-04T14:55:46.930Z,36.00
2018-03-04T14:58:15.373Z,33.80
2018-03-04T15:00:44.667Z,32.47
2018-03-04T15:03:13.890Z,30.98
2018-03-04T15:05:42.499Z,33.75
2018-03-04T15:08:12.416Z,30.90
2018-03-04T15:10:40.874Z,33.35
2018-03-04T15:13:09.298Z,34.28
2018-03-04T15:15:37.700Z,35.38
2018-03-04T15:18:06.282Z,39.53
2018-03-04T15:20:34.990Z,43.13
2018-03-04T15:23:03.608Z,42.40
2018-03-04T15:25:32.215Z,45.40
2018-03-04T15:28:01.535Z,46.58
2018-03-04T15:30:30.757Z,42.70
2018-03-04T15:32:59.217Z,41.37
2018-03-04T15:35:28.680Z,48.42
2018-03-04T15:37:57.110Z,42.05
2018-03-04T15:40:26.251Z,41.05
2018-03-04T15:42:54.903Z,42.30
2018-03-04T15:45:23.300Z,38.75
2018-03-04T15:47:51.755Z,41.15
2018-03-04T15:50:20.538Z,40.00
2018-03-04T15:52:49.264Z,39.45
2018-03-04T15:55:18.778Z,40.97
2018-03-04T15:57:47.327Z,37.47
2018-03-04T16:00:15.702Z,39.03
2018-03-04T16:02:44.095Z,40.90
2018-03-04T16:05:12.514Z,38.10
2018-03-04T16:07:41.790Z,39.03
2018-03-04T16:10:10.251Z,38.42
2018-03-04T16:12:38.950Z,35.60
2018-03-04T16:15:07.534Z,36.70
2018-03-04T16:17:35.986Z,37.55
2018-03-04T16:20:04.437Z,34.28
2018-03-04T16:22:33.800Z,33.08
2018-03-04T16:25:02.305Z,34.05
2018-03-04T16:27:30.900Z,36.00
2018-03-04T16:29:59.440Z,35.70
2018-03-04T16:32:28.261Z,35.20
2018-03-04T16:34:57.851Z,35.17
2018-03-04T16:37:26.254Z,34.67
2018-03-04T16:39:54.659Z,34.15
2018-03-04T16:42:23.043Z,34.35
2018-03-04T16:44:51.446Z,33.67
2018-03-04T16:47:20.765Z,32.53
2018-03-04T16:49:49.347Z,34.47
2018-03-04T16:52:17.932Z,33.67
2018-03-04T16:54:46.501Z,35.95
2018-03-04T16:57:14.895Z,35.28
2018-03-04T16:59:43.314Z,32.95
2018-03-04T17:02:11.733Z,38.80
2018-03-04T17:04:40.500Z,33.53
2018-03-04T17:07:09.255Z,37.08
2018-03-04T17:09:37.695Z,35.92
2018-03-04T17:12:06.346Z,39.72
2018-03-04T17:14:34.767Z,38.40
2018-03-04T17:17:03.898Z,34.95
2018-03-04T17:19:32.472Z,37.05
2018-03-04T17:22:01.396Z,37.55
2018-03-04T17:24:31.460Z,38.00
2018-03-04T17:27:00.926Z,38.05
2018-03-04T17:29:29.322Z,36.03
2018-03-04T17:31:58.303Z,35.63
2018-03-04T17:34:26.695Z,35.60
2018-03-04T17:36:55.272Z,36.42
2018-03-04T17:39:23.686Z,36.50
2018-03-04T17:41:52.395Z,38.33
2018-03-04T17:44:21.646Z,41.72
2018-03-04T17:46:50.070Z,35.40
2018-03-04T17:49:19.239Z,40.80
2018-03-04T17:51:47.746Z,38.03
2018-03-04T17:54:17.768Z,38.75
2018-03-04T17:56:46.194Z,37.00
2018-03-04T17:59:15.280Z,41.47
2018-03-04T18:01:43.926Z,37.78
2018-03-04T18:04:13.299Z,39.38
2018-03-04T18:06:46.189Z,40.67
2018-03-04T18:09:14.820Z,38.50
2018-03-04T18:11:43.832Z,44.03
2018-03-04T18:14:13.015Z,38.75
2018-03-04T18:16:42.461Z,39.95
2018-03-04T18:19:10.901Z,40.12
2018-03-04T18:21:39.341Z,37.15
2018-03-04T18:24:07.800Z,40.33
2018-03-04T18:26:36.199Z,40.33
2018-03-04T18:29:05.398Z,39.65
2018-03-04T18:31:34.662Z,40.40
2018-03-04T18:34:03.325Z,39.20
2018-03-04T18:36:31.718Z,41.00
2018-03-04T18:39:00.116Z,40.75
2018-03-04T18:41:28.852Z,38.65
2018-03-04T18:43:57.492Z,42.05
2018-03-04T18:46:26.692Z,42.08
2018-03-04T18:48:56.339Z,44.95
2018-03-04T18:51:24.746Z,42.85
2018-03-04T18:53:55.028Z,43.28
2018-03-04T18:56:24.263Z,43.17
2018-03-04T18:58:52.701Z,43.92
2018-03-04T19:01:21.750Z,45.50
2018-03-04T19:03:54.498Z,39.88
2018-03-04T19:06:22.971Z,43.25
2018-03-04T19:08:51.707Z,45.72
2018-03-04T19:11:21.265Z,44.60
2018-03-04T19:13:49.842Z,44.53
2018-03-04T19:16:19.018Z,42.97
2018-03-04T19:18:47.659Z,46.92
2018-03-04T19:21:16.616Z,46.15
2018-03-04T19:23:45.370Z,45.47
2018-03-04T19:26:14.087Z,44.50
2018-03-04T19:28:43.234Z,47.83
2018-03-04T19:31:13.299Z,48.80
2018-03-04T19:33:42.157Z,49.90
2018-03-04T19:36:10.602Z,47.47
2018-03-04T19:38:39.389Z,47.58
2018-03-04T19:41:08.658Z,49.10
2018-03-04T19:43:38.017Z,47.92
2018-03-04T19:46:06.579Z,46.47
2018-03-04T19:48:35.629Z,45.65
2018-03-04T19:51:04.938Z,50.78
2018-03-04T19:53:34.388Z,48.58
2018-03-04T19:56:02.974Z,50.50
2018-03-04T19:58:31.358Z,48.30
2018-03-04T20:01:00.167Z,54.00
2018-03-04T20:03:30.274Z,50.00
2018-03-04T20:05:59.968Z,53.30
2018-03-04T20:08:29.465Z,46.97
2018-03-04T20:10:57.850Z,50.38
2018-03-04T20:13:26.475Z,52.67
2018-03-04T20:15:55.861Z,53.40
2018-03-04T20:18:24.468Z,52.53
2018-03-04T20:20:54.395Z,51.03
2018-03-04T20:23:23.669Z,53.47
2018-03-04T20:25:52.388Z,53.20
2018-03-04T20:28:22.591Z,50.85
2018-03-04T20:30:51.924Z,55.60
2018-03-04T20:33:21.572Z,56.70
2018-03-04T20:35:51.345Z,52.55
2018-03-04T20:38:21.088Z,53.17
2018-03-04T20:40:50.162Z,51.92
2018-03-04T20:43:19.760Z,57.10
2018-03-04T20:45:49.479Z,55.80
2018-03-04T20:48:18.063Z,50.55
2018-03-04T20:50:47.651Z,55.00
2018-03-04T20:53:16.050Z,54.85
2018-03-04T20:55:45.457Z,54.80
2018-03-04T20:58:14.675Z,53.97
2018-03-04T21:00:43.098Z,52.40
2018-03-04T21:03:11.528Z,57.33
2018-03-04T21:05:41.518Z,53.22
2018-03-04T21:08:10.040Z,54.50
2018-03-04T21:10:38.483Z,58.03
2018-03-04T21:13:07.261Z,54.38
2018-03-04T21:15:36.205Z,57.13
2018-03-04T21:18:05.403Z,52.30
2018-03-04T21:20:33.839Z,53.92
2018-03-04T21:23:02.284Z,52.35
2018-03-04T21:25:30.820Z,54.65
2018-03-04T21:27:59.244Z,53.65
2018-03-04T21:30:28.754Z,53.72
2018-03-04T21:32:58.192Z,53.10
2018-03-04T21:35:28.701Z,52.03
2018-03-04T21:37:57.448Z,51.85
2018-03-04T21:40:27.388Z,52.85
2018-03-04T21:42:56.164Z,53.67
2018-03-04T21:45:26.618Z,52.00
2018-03-04T21:47:55.097Z,52.00
2018-03-04T21:50:23.564Z,53.05
2018-03-04T21:52:52.793Z,52.20
2018-03-04T21:55:21.251Z,53.17
2018-03-04T21:57:49.630Z,53.87
2018-03-04T22:00:18.099Z,52.58
2018-03-04T22:02:46.529Z,53.13
2018-03-04T22:05:15.057Z,52.00
2018-03-04T22:07:43.522Z,55.22
2018-03-04T22:10:12.761Z,51.80
2018-03-04T22:12:41.879Z,54.05
2018-03-04T22:15:10.373Z,53.20
2018-03-04T22:17:40.133Z,54.13
2018-03-04T22:20:10.070Z,52.90
2018-03-04T22:22:38.535Z,52.45
2018-03-04T22:25:07.135Z,52.72
2018-03-04T22:27:35.569Z,51.35
2018-03-04T22:30:04.910Z,56.33
2018-03-04T22:32:34.068Z,54.90
2018-03-04T22:35:03.526Z,52.30
2018-03-04T22:37:33.133Z,54.53
2018-03-04T22:40:01.855Z,55.03
2018-03-04T22:42:30.695Z,51.10
2018-03-04T22:44:59.183Z,53.70
2018-03-04T22:47:27.554Z,51.92
2018-03-04T22:49:56.192Z,51.85
2018-03-04T22:52:25.640Z,53.13
2018-03-04T22:54:54.177Z,48.65
2018-03-04T22:57:23.772Z,55.05
2018-03-04T22:59:52.136Z,55.65
2018-03-04T23:02:20.594Z,52.45
2018-03-04T23:04:49.127Z,55.30
2018-03-04T23:07:17.862Z,54.80
2018-03-04T23:09:46.305Z,54.40
2018-03-04T23:12:14.680Z,51.10
2018-03-04T23:14:44.187Z,52.50
2018-03-04T23:17:13.483Z,54.60
2018-03-04T23:19:41.863Z,52.95
2018-03-04T23:22:11.006Z,54.08
2018-03-04T23:24:39.583Z,51.37
2018-03-04T23:27:07.963Z,53.42
2018-03-04T23:29:36.414Z,56.80
2018-03-04T23:32:04.801Z,57.75
2018-03-04T23:34:33.177Z,55.72
2018-03-04T23:37:01.572Z,54.83
2018-03-04T23:39:30.266Z,56.22
2018-03-04T23:41:59.763Z,56.47
2018-03-04T23:44:29.023Z,55.25
2018-03-04T23:46:58.892Z,58.80
2018-03-04T23:49:27.586Z,54.70
2018-03-04T23:51:56.048Z,55.08
2018-03-04T23:54:24.529Z,54.38
2018-03-04T23:56:53.010Z,57.35
2018-03-04T23:59:21.427Z,55.95
